sensor_id;sensor_type;location;lat;lon;timestamp;P1;durP1;ratioP1;P2;durP2;ratioP2
12248;SDS011;6187;50.778;6.142;2022-07-29T00:01:38;1.17;;;1.00;;
12248;SDS011;6187;50.778;6.142;2022-07-29T00:04:07;1.73;;;1.17;;
12248;SDS011;6187;50.778;6.142;2022-07-29T00:06:36;1.80;;;1.10;;
12248;SDS011;6187;50.778;6.142;2022-07-29T00:09:04;1.10;;;1.00;;
12248;SDS011;6187;50.778;6.142;2022-07-29T00:11:34;1.10;;;1.00;;
12248;SDS011;6187;50.778;6.142;2022-07-29T00:14:03;1.00;;;0.90;;
12248;SDS011;6187;50.778;6.142;2022-07-29T00:16:32;1.33;;;1.00;;
12248;SDS011;6187;50.778;6.142;2022-07-29T00:19:00;1.40;;;0.90;;
12248;SDS011;6187;50.778;6.142;2022-07-29T00:21:29;1.53;;;1.13;;
12248;SDS011;6187;50.778;6.142;2022-07-29T00:23:58;1.40;;;1.10;;
12248;SDS011;6187;50.778;6.142;2022-07-29T00:26:26;1.83;;;1.37;;
12248;SDS011;6187;50.778;6.142;2022-07-29T00:28:59;1.10;;;0.90;;
12248;SDS011;6187;50.778;6.142;2022-07-29T00:31:48;1.13;;;1.00;;
12248;SDS011;6187;50.778;6.142;2022-07-29T00:34:17;1.47;;;0.90;;
12248;SDS011;6187;50.778;6.142;2022-07-29T00:37:04;2.13;;;1.03;;
12248;SDS011;6187;50.778;6.142;2022-07-29T00:39:33;1.37;;;1.00;;
12248;SDS011;6187;50.778;6.142;2022-07-29T00:42:02;1.40;;;1.30;;
12248;SDS011;6187;50.778;6.142;2022-07-29T00:44:35;1.20;;;1.00;;
12248;SDS011;6187;50.778;6.142;2022-07-29T00:47:04;2.03;;;1.00;;
12248;SDS011;6187;50.778;6.142;2022-07-29T00:49:33;1.57;;;1.00;;
12248;SDS011;6187;50.778;6.142;2022-07-29T00:52:01;1.00;;;0.87;;
12248;SDS011;6187;50.778;6.142;2022-07-29T00:54:30;1.40;;;1.00;;
12248;SDS011;6187;50.778;6.142;2022-07-29T00:56:59;1.70;;;0.93;;
12248;SDS011;6187;50.778;6.142;2022-07-29T00:59:28;0.90;;;0.90;;
12248;SDS011;6187;50.778;6.142;2022-07-29T01:02:02;1.17;;;1.03;;
12248;SDS011;6187;50.778;6.142;2022-07-29T01:04:31;1.40;;;1.00;;
12248;SDS011;6187;50.778;6.142;2022-07-29T01:07:00;1.43;;;1.00;;
12248;SDS011;6187;50.778;6.142;2022-07-29T01:09:29;1.57;;;1.03;;
12248;SDS011;6187;50.778;6.142;2022-07-29T01:12:12;1.73;;;1.10;;
12248;SDS011;6187;50.778;6.142;2022-07-29T01:14:41;3.57;;;1.50;;
12248;SDS011;6187;50.778;6.142;2022-07-29T01:17:12;2.30;;;1.30;;
12248;SDS011;6187;50.778;6.142;2022-07-29T01:19:45;1.13;;;1.03;;
12248;SDS011;6187;50.778;6.142;2022-07-29T01:22:21;2.03;;;1.00;;
12248;SDS011;6187;50.778;6.142;2022-07-29T01:25:10;1.53;;;1.13;;
12248;SDS011;6187;50.778;6.142;2022-07-29T01:27:45;2.67;;;1.30;;
12248;SDS011;6187;50.778;6.142;2022-07-29T01:30:17;1.80;;;1.00;;
12248;SDS011;6187;50.778;6.142;2022-07-29T01:32:50;1.53;;;1.10;;
12248;SDS011;6187;50.778;6.142;2022-07-29T01:35:20;1.30;;;1.00;;
12248;SDS011;6187;50.778;6.142;2022-07-29T01:37:50;1.10;;;1.00;;
12248;SDS011;6187;50.778;6.142;2022-07-29T01:40:20;1.97;;;1.10;;
12248;SDS011;6187;50.778;6.142;2022-07-29T01:42:51;1.83;;;1.13;;
12248;SDS011;6187;50.778;6.142;2022-07-29T01:45:23;1.63;;;1.03;;
12248;SDS011;6187;50.778;6.142;2022-07-29T01:47:54;2.97;;;1.10;;
12248;SDS011;6187;50.778;6.142;2022-07-29T01:50:26;1.90;;;1.00;;
12248;SDS011;6187;50.778;6.142;2022-07-29T01:52:56;2.97;;;1.40;;
12248;SDS011;6187;50.778;6.142;2022-07-29T01:55:28;4.07;;;1.43;;
12248;SDS011;6187;50.778;6.142;2022-07-29T01:57:57;2.83;;;1.60;;
12248;SDS011;6187;50.778;6.142;2022-07-29T02:00:28;1.97;;;1.20;;
12248;SDS011;6187;50.778;6.142;2022-07-29T02:02:58;2.03;;;1.10;;
12248;SDS011;6187;50.778;6.142;2022-07-29T02:05:27;1.70;;;1.33;;
12248;SDS011;6187;50.778;6.142;2022-07-29T02:07:57;1.70;;;1.07;;
12248;SDS011;6187;50.778;6.142;2022-07-29T02:10:27;2.90;;;1.10;;
12248;SDS011;6187;50.778;6.142;2022-07-29T02:12:57;2.70;;;1.20;;
12248;SDS011;6187;50.778;6.142;2022-07-29T02:15:28;1.53;;;1.00;;
12248;SDS011;6187;50.778;6.142;2022-07-29T02:17:58;1.57;;;0.90;;
12248;SDS011;6187;50.778;6.142;2022-07-29T02:20:28;1.23;;;1.13;;
12248;SDS011;6187;50.778;6.142;2022-07-29T02:22:57;1.90;;;1.20;;
12248;SDS011;6187;50.778;6.142;2022-07-29T02:25:27;1.40;;;1.10;;
12248;SDS011;6187;50.778;6.142;2022-07-29T02:28:04;1.50;;;1.00;;
12248;SDS011;6187;50.778;6.142;2022-07-29T02:30:36;1.37;;;1.03;;
12248;SDS011;6187;50.778;6.142;2022-07-29T02:33:04;1.37;;;1.20;;
12248;SDS011;6187;50.778;6.142;2022-07-29T02:35:33;1.50;;;1.30;;
12248;SDS011;6187;50.778;6.142;2022-07-29T02:38:02;2.13;;;1.20;;
12248;SDS011;6187;50.778;6.142;2022-07-29T02:40:49;2.70;;;1.37;;
12248;SDS011;6187;50.778;6.142;2022-07-29T02:43:18;2.53;;;1.50;;
12248;SDS011;6187;50.778;6.142;2022-07-29T02:45:51;1.63;;;1.13;;
12248;SDS011;6187;50.778;6.142;2022-07-29T02:48:21;2.80;;;1.30;;
12248;SDS011;6187;50.778;6.142;2022-07-29T02:50:57;1.80;;;1.20;;
12248;SDS011;6187;50.778;6.142;2022-07-29T02:53:29;2.90;;;1.10;;
12248;SDS011;6187;50.778;6.142;2022-07-29T02:56:03;1.67;;;1.30;;
12248;SDS011;6187;50.778;6.142;2022-07-29T02:58:33;2.70;;;1.73;;
12248;SDS011;6187;50.778;6.142;2022-07-29T03:01:04;4.23;;;1.60;;
12248;SDS011;6187;50.778;6.142;2022-07-29T03:03:37;2.23;;;1.17;;
12248;SDS011;6187;50.778;6.142;2022-07-29T03:06:06;2.13;;;1.20;;
12248;SDS011;6187;50.778;6.142;2022-07-29T03:08:55;1.47;;;1.13;;
12248;SDS011;6187;50.778;6.142;2022-07-29T03:11:25;3.27;;;1.53;;
12248;SDS011;6187;50.778;6.142;2022-07-29T03:14:15;2.33;;;1.50;;
12248;SDS011;6187;50.778;6.142;2022-07-29T03:16:48;2.50;;;1.47;;
12248;SDS011;6187;50.778;6.142;2022-07-29T03:19:17;1.73;;;1.50;;
12248;SDS011;6187;50.778;6.142;2022-07-29T03:21:45;1.60;;;1.30;;
12248;SDS011;6187;50.778;6.142;2022-07-29T03:24:24;2.83;;;1.47;;
12248;SDS011;6187;50.778;6.142;2022-07-29T03:26:53;2.00;;;1.30;;
12248;SDS011;6187;50.778;6.142;2022-07-29T03:29:22;1.80;;;1.20;;
12248;SDS011;6187;50.778;6.142;2022-07-29T03:32:01;1.90;;;1.17;;
12248;SDS011;6187;50.778;6.142;2022-07-29T03:34:33;2.50;;;1.30;;
12248;SDS011;6187;50.778;6.142;2022-07-29T03:37:01;2.87;;;1.40;;
12248;SDS011;6187;50.778;6.142;2022-07-29T03:39:31;4.17;;;1.50;;
12248;SDS011;6187;50.778;6.142;2022-07-29T03:42:01;3.60;;;1.77;;
12248;SDS011;6187;50.778;6.142;2022-07-29T03:44:32;1.50;;;1.40;;
12248;SDS011;6187;50.778;6.142;2022-07-29T03:47:02;2.70;;;1.60;;
12248;SDS011;6187;50.778;6.142;2022-07-29T03:49:32;4.73;;;1.80;;
12248;SDS011;6187;50.778;6.142;2022-07-29T03:52:03;2.73;;;1.50;;
12248;SDS011;6187;50.778;6.142;2022-07-29T03:54:32;4.20;;;1.77;;
12248;SDS011;6187;50.778;6.142;2022-07-29T03:57:01;2.40;;;1.57;;
12248;SDS011;6187;50.778;6.142;2022-07-29T03:59:30;2.73;;;1.80;;
12248;SDS011;6187;50.778;6.142;2022-07-29T04:01:59;1.40;;;1.20;;
12248;SDS011;6187;50.778;6.142;2022-07-29T04:04:29;1.43;;;1.30;;
12248;SDS011;6187;50.778;6.142;2022-07-29T04:07:00;2.00;;;1.50;;
12248;SDS011;6187;50.778;6.142;2022-07-29T04:09:29;2.20;;;1.27;;
12248;SDS011;6187;50.778;6.142;2022-07-29T04:11:58;1.80;;;1.40;;
12248;SDS011;6187;50.778;6.142;2022-07-29T04:14:29;1.57;;;1.27;;
12248;SDS011;6187;50.778;6.142;2022-07-29T04:16:58;2.27;;;1.50;;
12248;SDS011;6187;50.778;6.142;2022-07-29T04:19:27;1.97;;;1.40;;
12248;SDS011;6187;50.778;6.142;2022-07-29T04:21:57;1.50;;;1.10;;
12248;SDS011;6187;50.778;6.142;2022-07-29T04:24:26;1.70;;;1.27;;
12248;SDS011;6187;50.778;6.142;2022-07-29T04:26:55;1.47;;;1.30;;
12248;SDS011;6187;50.778;6.142;2022-07-29T04:29:23;1.80;;;1.40;;
12248;SDS011;6187;50.778;6.142;2022-07-29T04:31:52;1.67;;;1.20;;
12248;SDS011;6187;50.778;6.142;2022-07-29T04:34:21;3.27;;;1.50;;
12248;SDS011;6187;50.778;6.142;2022-07-29T04:36:54;2.13;;;1.50;;
12248;SDS011;6187;50.778;6.142;2022-07-29T04:39:24;2.37;;;1.53;;
12248;SDS011;6187;50.778;6.142;2022-07-29T04:41:56;1.90;;;1.30;;
12248;SDS011;6187;50.778;6.142;2022-07-29T04:44:24;2.00;;;1.50;;
12248;SDS011;6187;50.778;6.142;2022-07-29T04:46:55;2.47;;;1.43;;
12248;SDS011;6187;50.778;6.142;2022-07-29T04:49:24;2.40;;;1.70;;
12248;SDS011;6187;50.778;6.142;2022-07-29T04:51:53;3.80;;;1.97;;
12248;SDS011;6187;50.778;6.142;2022-07-29T04:54:21;2.00;;;1.50;;
12248;SDS011;6187;50.778;6.142;2022-07-29T04:56:53;2.57;;;1.60;;
12248;SDS011;6187;50.778;6.142;2022-07-29T04:59:22;1.60;;;1.50;;
12248;SDS011;6187;50.778;6.142;2022-07-29T05:01:51;1.57;;;1.30;;
12248;SDS011;6187;50.778;6.142;2022-07-29T05:04:20;3.53;;;1.50;;
12248;SDS011;6187;50.778;6.142;2022-07-29T05:06:49;3.27;;;1.73;;
12248;SDS011;6187;50.778;6.142;2022-07-29T05:09:18;2.03;;;1.47;;
12248;SDS011;6187;50.778;6.142;2022-07-29T05:11:46;2.23;;;1.27;;
12248;SDS011;6187;50.778;6.142;2022-07-29T05:14:16;1.83;;;1.27;;
12248;SDS011;6187;50.778;6.142;2022-07-29T05:16:46;3.43;;;1.70;;
12248;SDS011;6187;50.778;6.142;2022-07-29T05:19:17;2.67;;;1.30;;
12248;SDS011;6187;50.778;6.142;2022-07-29T05:21:46;2.27;;;1.43;;
12248;SDS011;6187;50.778;6.142;2022-07-29T05:24:14;1.73;;;1.20;;
12248;SDS011;6187;50.778;6.142;2022-07-29T05:26:44;1.30;;;1.20;;
12248;SDS011;6187;50.778;6.142;2022-07-29T05:29:12;1.40;;;1.20;;
12248;SDS011;6187;50.778;6.142;2022-07-29T05:32:02;3.50;;;1.60;;
12248;SDS011;6187;50.778;6.142;2022-07-29T05:34:31;4.03;;;1.50;;
12248;SDS011;6187;50.778;6.142;2022-07-29T05:37:00;1.63;;;1.40;;
12248;SDS011;6187;50.778;6.142;2022-07-29T05:39:28;1.70;;;1.50;;
12248;SDS011;6187;50.778;6.142;2022-07-29T05:42:16;1.53;;;1.27;;
12248;SDS011;6187;50.778;6.142;2022-07-29T05:44:44;1.47;;;1.30;;
12248;SDS011;6187;50.778;6.142;2022-07-29T05:47:15;1.30;;;1.20;;
12248;SDS011;6187;50.778;6.142;2022-07-29T05:49:43;3.57;;;1.73;;
12248;SDS011;6187;50.778;6.142;2022-07-29T05:52:13;4.20;;;1.53;;
12248;SDS011;6187;50.778;6.142;2022-07-29T05:54:41;5.27;;;1.80;;
12248;SDS011;6187;50.778;6.142;2022-07-29T05:57:14;1.77;;;1.50;;
12248;SDS011;6187;50.778;6.142;2022-07-29T05:59:43;2.87;;;1.47;;
12248;SDS011;6187;50.778;6.142;2022-07-29T06:02:12;2.73;;;1.37;;
12248;SDS011;6187;50.778;6.142;2022-07-29T06:04:42;1.50;;;1.40;;
12248;SDS011;6187;50.778;6.142;2022-07-29T06:07:11;2.27;;;1.50;;
12248;SDS011;6187;50.778;6.142;2022-07-29T06:09:39;1.70;;;1.50;;
12248;SDS011;6187;50.778;6.142;2022-07-29T06:12:08;3.60;;;1.83;;
12248;SDS011;6187;50.778;6.142;2022-07-29T06:14:37;3.80;;;1.73;;
12248;SDS011;6187;50.778;6.142;2022-07-29T06:17:05;3.63;;;1.80;;
12248;SDS011;6187;50.778;6.142;2022-07-29T06:19:34;4.57;;;1.70;;
12248;SDS011;6187;50.778;6.142;2022-07-29T06:22:04;1.70;;;1.50;;
12248;SDS011;6187;50.778;6.142;2022-07-29T06:24:33;1.97;;;1.60;;
12248;SDS011;6187;50.778;6.142;2022-07-29T06:27:01;2.83;;;1.57;;
12248;SDS011;6187;50.778;6.142;2022-07-29T06:29:30;3.17;;;1.70;;
12248;SDS011;6187;50.778;6.142;2022-07-29T06:31:58;2.43;;;1.70;;
12248;SDS011;6187;50.778;6.142;2022-07-29T06:34:28;1.97;;;1.53;;
12248;SDS011;6187;50.778;6.142;2022-07-29T06:36:57;2.00;;;1.80;;
12248;SDS011;6187;50.778;6.142;2022-07-29T06:39:27;2.80;;;1.70;;
12248;SDS011;6187;50.778;6.142;2022-07-29T06:41:56;2.50;;;1.50;;
12248;SDS011;6187;50.778;6.142;2022-07-29T06:44:24;1.63;;;1.37;;
12248;SDS011;6187;50.778;6.142;2022-07-29T06:46:53;3.00;;;1.80;;
12248;SDS011;6187;50.778;6.142;2022-07-29T06:49:22;1.67;;;1.53;;
12248;SDS011;6187;50.778;6.142;2022-07-29T06:51:52;3.10;;;1.80;;
12248;SDS011;6187;50.778;6.142;2022-07-29T06:54:21;2.97;;;1.97;;
12248;SDS011;6187;50.778;6.142;2022-07-29T06:56:51;5.03;;;2.00;;
12248;SDS011;6187;50.778;6.142;2022-07-29T06:59:19;3.10;;;1.60;;
12248;SDS011;6187;50.778;6.142;2022-07-29T07:01:59;3.03;;;1.93;;
12248;SDS011;6187;50.778;6.142;2022-07-29T07:04:27;2.70;;;1.50;;
12248;SDS011;6187;50.778;6.142;2022-07-29T07:06:56;5.37;;;2.03;;
12248;SDS011;6187;50.778;6.142;2022-07-29T07:09:25;3.30;;;2.03;;
12248;SDS011;6187;50.778;6.142;2022-07-29T07:12:07;3.53;;;2.03;;
12248;SDS011;6187;50.778;6.142;2022-07-29T07:14:36;2.10;;;1.70;;
12248;SDS011;6187;50.778;6.142;2022-07-29T07:17:06;4.87;;;2.43;;
12248;SDS011;6187;50.778;6.142;2022-07-29T07:19:34;1.73;;;1.63;;
12248;SDS011;6187;50.778;6.142;2022-07-29T07:22:03;3.60;;;2.00;;
12248;SDS011;6187;50.778;6.142;2022-07-29T07:24:32;6.33;;;2.57;;
12248;SDS011;6187;50.778;6.142;2022-07-29T07:27:00;7.30;;;2.27;;
12248;SDS011;6187;50.778;6.142;2022-07-29T07:29:30;3.83;;;2.10;;
12248;SDS011;6187;50.778;6.142;2022-07-29T07:31:59;3.10;;;2.20;;
12248;SDS011;6187;50.778;6.142;2022-07-29T07:34:28;3.83;;;2.43;;
12248;SDS011;6187;50.778;6.142;2022-07-29T07:36:57;4.53;;;2.10;;
12248;SDS011;6187;50.778;6.142;2022-07-29T07:39:26;3.37;;;2.17;;
12248;SDS011;6187;50.778;6.142;2022-07-29T07:41:54;4.60;;;2.00;;
12248;SDS011;6187;50.778;6.142;2022-07-29T07:44:23;3.97;;;2.03;;
12248;SDS011;6187;50.778;6.142;2022-07-29T07:46:53;4.40;;;2.43;;
12248;SDS011;6187;50.778;6.142;2022-07-29T07:49:22;4.67;;;2.57;;
12248;SDS011;6187;50.778;6.142;2022-07-29T07:51:50;4.50;;;2.30;;
12248;SDS011;6187;50.778;6.142;2022-07-29T07:54:19;3.53;;;2.17;;
12248;SDS011;6187;50.778;6.142;2022-07-29T07:56:48;4.07;;;1.90;;
12248;SDS011;6187;50.778;6.142;2022-07-29T07:59:19;4.27;;;2.00;;
12248;SDS011;6187;50.778;6.142;2022-07-29T08:01:47;2.67;;;1.93;;
12248;SDS011;6187;50.778;6.142;2022-07-29T08:04:23;2.30;;;1.80;;
12248;SDS011;6187;50.778;6.142;2022-07-29T08:06:54;3.77;;;2.20;;
12248;SDS011;6187;50.778;6.142;2022-07-29T08:09:24;3.77;;;2.10;;
12248;SDS011;6187;50.778;6.142;2022-07-29T08:11:55;5.77;;;2.10;;
12248;SDS011;6187;50.778;6.142;2022-07-29T08:14:24;2.43;;;1.90;;
12248;SDS011;6187;50.778;6.142;2022-07-29T08:16:53;2.03;;;1.80;;
12248;SDS011;6187;50.778;6.142;2022-07-29T08:19:21;3.33;;;1.97;;
12248;SDS011;6187;50.778;6.142;2022-07-29T08:21:51;2.10;;;1.90;;
12248;SDS011;6187;50.778;6.142;2022-07-29T08:24:21;4.37;;;2.10;;
12248;SDS011;6187;50.778;6.142;2022-07-29T08:27:08;3.27;;;2.10;;
12248;SDS011;6187;50.778;6.142;2022-07-29T08:29:57;2.20;;;1.60;;
12248;SDS011;6187;50.778;6.142;2022-07-29T08:32:25;3.60;;;2.17;;
12248;SDS011;6187;50.778;6.142;2022-07-29T08:35:14;3.90;;;2.03;;
12248;SDS011;6187;50.778;6.142;2022-07-29T08:37:44;3.13;;;2.03;;
12248;SDS011;6187;50.778;6.142;2022-07-29T08:40:13;2.27;;;1.80;;
12248;SDS011;6187;50.778;6.142;2022-07-29T08:42:42;3.03;;;1.90;;
12248;SDS011;6187;50.778;6.142;2022-07-29T08:45:11;2.00;;;1.70;;
12248;SDS011;6187;50.778;6.142;2022-07-29T08:47:39;3.17;;;2.20;;
12248;SDS011;6187;50.778;6.142;2022-07-29T08:50:08;2.50;;;1.90;;
12248;SDS011;6187;50.778;6.142;2022-07-29T08:52:38;3.33;;;2.30;;
12248;SDS011;6187;50.778;6.142;2022-07-29T08:55:09;3.63;;;2.10;;
12248;SDS011;6187;50.778;6.142;2022-07-29T08:57:38;2.73;;;2.00;;
12248;SDS011;6187;50.778;6.142;2022-07-29T09:00:18;3.60;;;1.80;;
12248;SDS011;6187;50.778;6.142;2022-07-29T09:02:49;4.23;;;2.60;;
12248;SDS011;6187;50.778;6.142;2022-07-29T09:05:19;4.47;;;2.20;;
12248;SDS011;6187;50.778;6.142;2022-07-29T09:07:48;3.07;;;2.00;;
12248;SDS011;6187;50.778;6.142;2022-07-29T09:10:18;2.10;;;1.80;;
12248;SDS011;6187;50.778;6.142;2022-07-29T09:12:47;3.87;;;1.90;;
12248;SDS011;6187;50.778;6.142;2022-07-29T09:15:17;3.13;;;2.10;;
12248;SDS011;6187;50.778;6.142;2022-07-29T09:17:46;5.07;;;2.20;;
12248;SDS011;6187;50.778;6.142;2022-07-29T09:20:16;7.30;;;3.07;;
12248;SDS011;6187;50.778;6.142;2022-07-29T09:22:45;6.67;;;2.10;;
12248;SDS011;6187;50.778;6.142;2022-07-29T09:25:32;3.20;;;2.10;;
12248;SDS011;6187;50.778;6.142;2022-07-29T09:28:09;2.77;;;1.80;;
12248;SDS011;6187;50.778;6.142;2022-07-29T09:30:39;3.77;;;2.20;;
12248;SDS011;6187;50.778;6.142;2022-07-29T09:33:17;2.87;;;1.67;;
12248;SDS011;6187;50.778;6.142;2022-07-29T09:35:57;4.20;;;1.70;;
12248;SDS011;6187;50.778;6.142;2022-07-29T09:38:27;3.87;;;1.80;;
12248;SDS011;6187;50.778;6.142;2022-07-29T09:40:56;3.33;;;2.13;;
12248;SDS011;6187;50.778;6.142;2022-07-29T09:43:33;3.87;;;1.80;;
12248;SDS011;6187;50.778;6.142;2022-07-29T09:46:09;4.30;;;1.87;;
12248;SDS011;6187;50.778;6.142;2022-07-29T09:48:38;5.93;;;1.93;;
12248;SDS011;6187;50.778;6.142;2022-07-29T09:51:16;3.97;;;2.30;;
12248;SDS011;6187;50.778;6.142;2022-07-29T09:53:47;3.10;;;1.97;;
12248;SDS011;6187;50.778;6.142;2022-07-29T09:56:18;4.07;;;2.60;;
12248;SDS011;6187;50.778;6.142;2022-07-29T09:58:48;2.50;;;2.30;;
12248;SDS011;6187;50.778;6.142;2022-07-29T10:01:33;3.73;;;2.47;;
12248;SDS011;6187;50.778;6.142;2022-07-29T10:04:02;3.93;;;2.23;;
12248;SDS011;6187;50.778;6.142;2022-07-29T10:06:31;4.07;;;2.40;;
12248;SDS011;6187;50.778;6.142;2022-07-29T10:09:09;3.73;;;2.63;;
12248;SDS011;6187;50.778;6.142;2022-07-29T10:11:37;4.87;;;2.83;;
12248;SDS011;6187;50.778;6.142;2022-07-29T10:14:16;3.13;;;2.10;;
12248;SDS011;6187;50.778;6.142;2022-07-29T10:16:46;3.87;;;2.63;;
12248;SDS011;6187;50.778;6.142;2022-07-29T10:19:14;4.60;;;2.30;;
12248;SDS011;6187;50.778;6.142;2022-07-29T10:21:43;3.63;;;2.90;;
12248;SDS011;6187;50.778;6.142;2022-07-29T10:24:12;4.80;;;2.60;;
12248;SDS011;6187;50.778;6.142;2022-07-29T10:26:41;3.73;;;2.20;;
12248;SDS011;6187;50.778;6.142;2022-07-29T10:29:11;2.87;;;2.60;;
12248;SDS011;6187;50.778;6.142;2022-07-29T10:31:44;3.27;;;2.30;;
12248;SDS011;6187;50.778;6.142;2022-07-29T10:34:17;4.27;;;2.40;;
12248;SDS011;6187;50.778;6.142;2022-07-29T10:36:50;4.87;;;2.47;;
12248;SDS011;6187;50.778;6.142;2022-07-29T10:39:25;2.97;;;2.40;;
12248;SDS011;6187;50.778;6.142;2022-07-29T10:42:11;2.70;;;2.00;;
12248;SDS011;6187;50.778;6.142;2022-07-29T10:44:45;3.83;;;2.40;;
12248;SDS011;6187;50.778;6.142;2022-07-29T10:47:20;3.43;;;2.50;;
12248;SDS011;6187;50.778;6.142;2022-07-29T10:49:56;2.73;;;2.10;;
12248;SDS011;6187;50.778;6.142;2022-07-29T10:58:10;3.60;;;2.20;;
12248;SDS011;6187;50.778;6.142;2022-07-29T11:00:40;3.13;;;2.10;;
12248;SDS011;6187;50.778;6.142;2022-07-29T11:05:56;3.40;;;2.13;;
12248;SDS011;6187;50.778;6.142;2022-07-29T11:08:25;4.20;;;2.07;;
12248;SDS011;6187;50.778;6.142;2022-07-29T11:13:46;2.33;;;2.00;;
12248;SDS011;6187;50.778;6.142;2022-07-29T11:16:18;2.43;;;1.80;;
12248;SDS011;6187;50.778;6.142;2022-07-29T11:21:53;2.23;;;1.83;;
12248;SDS011;6187;50.778;6.142;2022-07-29T11:24:24;5.57;;;2.67;;
12248;SDS011;6187;50.778;6.142;2022-07-29T11:29:54;4.00;;;1.80;;
12248;SDS011;6187;50.778;6.142;2022-07-29T11:32:36;2.57;;;1.57;;
12248;SDS011;6187;50.778;6.142;2022-07-29T11:35:12;3.37;;;1.70;;
12248;SDS011;6187;50.778;6.142;2022-07-29T11:37:45;2.90;;;1.57;;
12248;SDS011;6187;50.778;6.142;2022-07-29T11:40:23;3.43;;;1.80;;
12248;SDS011;6187;50.778;6.142;2022-07-29T11:42:52;4.20;;;1.60;;
12248;SDS011;6187;50.778;6.142;2022-07-29T11:45:24;2.20;;;1.60;;
12248;SDS011;6187;50.778;6.142;2022-07-29T11:48:14;3.67;;;2.00;;
12248;SDS011;6187;50.778;6.142;2022-07-29T11:50:58;2.00;;;1.70;;
12248;SDS011;6187;50.778;6.142;2022-07-29T11:53:28;4.33;;;2.27;;
12248;SDS011;6187;50.778;6.142;2022-07-29T11:55:59;2.72;;;1.95;;
12248;SDS011;6187;50.778;6.142;2022-07-29T11:58:28;3.63;;;2.20;;
12248;SDS011;6187;50.778;6.142;2022-07-29T12:00:57;5.93;;;2.37;;
12248;SDS011;6187;50.778;6.142;2022-07-29T12:03:31;6.00;;;2.10;;
12248;SDS011;6187;50.778;6.142;2022-07-29T12:06:03;4.17;;;2.20;;
12248;SDS011;6187;50.778;6.142;2022-07-29T12:08:39;4.90;;;2.50;;
12248;SDS011;6187;50.778;6.142;2022-07-29T12:11:16;2.60;;;1.93;;
12248;SDS011;6187;50.778;6.142;2022-07-29T12:13:47;5.53;;;2.10;;
12248;SDS011;6187;50.778;6.142;2022-07-29T12:16:16;2.40;;;1.93;;
12248;SDS011;6187;50.778;6.142;2022-07-29T12:18:56;3.00;;;1.88;;
12248;SDS011;6187;50.778;6.142;2022-07-29T12:21:25;2.13;;;1.60;;
12248;SDS011;6187;50.778;6.142;2022-07-29T12:23:56;2.70;;;1.90;;
12248;SDS011;6187;50.778;6.142;2022-07-29T12:26:35;2.83;;;1.90;;
12248;SDS011;6187;50.778;6.142;2022-07-29T12:29:06;3.17;;;1.65;;
12248;SDS011;6187;50.778;6.142;2022-07-29T12:31:41;2.30;;;1.90;;
12248;SDS011;6187;50.778;6.142;2022-07-29T12:34:23;2.70;;;1.70;;
12248;SDS011;6187;50.778;6.142;2022-07-29T12:36:54;3.20;;;2.15;;
12248;SDS011;6187;50.778;6.142;2022-07-29T12:39:24;3.20;;;1.90;;
12248;SDS011;6187;50.778;6.142;2022-07-29T12:41:54;2.20;;;1.42;;
12248;SDS011;6187;50.778;6.142;2022-07-29T12:44:43;3.25;;;2.35;;
12248;SDS011;6187;50.778;6.142;2022-07-29T12:47:11;3.97;;;1.50;;
12248;SDS011;6187;50.778;6.142;2022-07-29T12:49:40;2.45;;;1.80;;
12248;SDS011;6187;50.778;6.142;2022-07-29T12:52:24;2.67;;;1.73;;
12248;SDS011;6187;50.778;6.142;2022-07-29T12:54:54;3.47;;;1.50;;
12248;SDS011;6187;50.778;6.142;2022-07-29T12:57:23;2.20;;;1.70;;
12248;SDS011;6187;50.778;6.142;2022-07-29T12:59:59;2.55;;;1.80;;
12248;SDS011;6187;50.778;6.142;2022-07-29T13:02:27;3.63;;;2.22;;
12248;SDS011;6187;50.778;6.142;2022-07-29T13:04:56;2.80;;;1.52;;
12248;SDS011;6187;50.778;6.142;2022-07-29T13:07:27;2.40;;;1.70;;
12248;SDS011;6187;50.778;6.142;2022-07-29T13:10:18;4.05;;;2.10;;
12248;SDS011;6187;50.778;6.142;2022-07-29T13:13:02;2.00;;;1.85;;
12248;SDS011;6187;50.778;6.142;2022-07-29T13:15:31;3.05;;;2.40;;
12248;SDS011;6187;50.778;6.142;2022-07-29T13:18:00;2.55;;;1.80;;
12248;SDS011;6187;50.778;6.142;2022-07-29T13:20:30;2.13;;;1.70;;
12248;SDS011;6187;50.778;6.142;2022-07-29T13:23:00;2.17;;;1.83;;
12248;SDS011;6187;50.778;6.142;2022-07-29T13:25:30;3.30;;;1.80;;
12248;SDS011;6187;50.778;6.142;2022-07-29T13:27:59;3.60;;;1.80;;
12248;SDS011;6187;50.778;6.142;2022-07-29T13:30:28;3.72;;;2.10;;
12248;SDS011;6187;50.778;6.142;2022-07-29T13:32:57;2.70;;;1.60;;
12248;SDS011;6187;50.778;6.142;2022-07-29T13:35:25;2.90;;;1.80;;
12248;SDS011;6187;50.778;6.142;2022-07-29T13:37:56;1.77;;;1.65;;
12248;SDS011;6187;50.778;6.142;2022-07-29T13:40:24;4.53;;;1.80;;
12248;SDS011;6187;50.778;6.142;2022-07-29T13:42:54;3.20;;;1.60;;
12248;SDS011;6187;50.778;6.142;2022-07-29T13:45:23;2.10;;;1.60;;
12248;SDS011;6187;50.778;6.142;2022-07-29T13:47:54;2.30;;;1.80;;
12248;SDS011;6187;50.778;6.142;2022-07-29T13:50:23;2.95;;;2.03;;
12248;SDS011;6187;50.778;6.142;2022-07-29T13:52:52;2.28;;;1.40;;
12248;SDS011;6187;50.778;6.142;2022-07-29T13:55:20;3.22;;;1.63;;
12248;SDS011;6187;50.778;6.142;2022-07-29T13:57:49;2.42;;;1.48;;
12248;SDS011;6187;50.778;6.142;2022-07-29T14:00:19;1.40;;;1.30;;
12248;SDS011;6187;50.778;6.142;2022-07-29T14:02:50;2.72;;;1.30;;
12248;SDS011;6187;50.778;6.142;2022-07-29T14:05:18;1.63;;;1.30;;
12248;SDS011;6187;50.778;6.142;2022-07-29T14:07:47;2.08;;;1.33;;
12248;SDS011;6187;50.778;6.142;2022-07-29T14:10:15;1.83;;;1.38;;
12248;SDS011;6187;50.778;6.142;2022-07-29T14:12:45;2.58;;;1.45;;
12248;SDS011;6187;50.778;6.142;2022-07-29T14:15:14;2.03;;;1.23;;
12248;SDS011;6187;50.778;6.142;2022-07-29T14:17:45;2.45;;;1.33;;
12248;SDS011;6187;50.778;6.142;2022-07-29T14:20:13;1.25;;;1.13;;
12248;SDS011;6187;50.778;6.142;2022-07-29T14:22:43;1.73;;;1.40;;
12248;SDS011;6187;50.778;6.142;2022-07-29T14:25:11;1.40;;;1.30;;
12248;SDS011;6187;50.778;6.142;2022-07-29T14:27:41;1.90;;;1.45;;
12248;SDS011;6187;50.778;6.142;2022-07-29T14:30:10;1.83;;;1.20;;
12248;SDS011;6187;50.778;6.142;2022-07-29T14:32:39;1.42;;;1.20;;
12248;SDS011;6187;50.778;6.142;2022-07-29T14:35:09;1.75;;;1.20;;
12248;SDS011;6187;50.778;6.142;2022-07-29T14:37:38;1.55;;;1.20;;
12248;SDS011;6187;50.778;6.142;2022-07-29T14:40:07;1.63;;;1.30;;
12248;SDS011;6187;50.778;6.142;2022-07-29T14:42:37;3.15;;;1.60;;
12248;SDS011;6187;50.778;6.142;2022-07-29T14:45:06;1.30;;;1.20;;
12248;SDS011;6187;50.778;6.142;2022-07-29T14:47:35;2.53;;;1.38;;
12248;SDS011;6187;50.778;6.142;2022-07-29T14:50:05;2.80;;;1.23;;
12248;SDS011;6187;50.778;6.142;2022-07-29T14:52:35;1.75;;;1.55;;
12248;SDS011;6187;50.778;6.142;2022-07-29T14:55:04;1.50;;;1.40;;
12248;SDS011;6187;50.778;6.142;2022-07-29T14:57:46;2.30;;;1.60;;
12248;SDS011;6187;50.778;6.142;2022-07-29T15:00:15;2.30;;;1.50;;
12248;SDS011;6187;50.778;6.142;2022-07-29T15:02:43;2.38;;;1.50;;
12248;SDS011;6187;50.778;6.142;2022-07-29T15:05:27;3.33;;;1.48;;
12248;SDS011;6187;50.778;6.142;2022-07-29T15:07:57;1.37;;;1.27;;
12248;SDS011;6187;50.778;6.142;2022-07-29T15:10:26;1.27;;;1.17;;
12248;SDS011;6187;50.778;6.142;2022-07-29T15:12:55;1.30;;;1.20;;
12248;SDS011;6187;50.778;6.142;2022-07-29T15:15:24;2.63;;;1.57;;
12248;SDS011;6187;50.778;6.142;2022-07-29T15:17:52;1.50;;;1.27;;
12248;SDS011;6187;50.778;6.142;2022-07-29T15:20:21;1.90;;;1.70;;
12248;SDS011;6187;50.778;6.142;2022-07-29T15:22:51;4.15;;;1.75;;
12248;SDS011;6187;50.778;6.142;2022-07-29T15:25:23;1.43;;;1.30;;
12248;SDS011;6187;50.778;6.142;2022-07-29T15:27:54;2.05;;;1.85;;
12248;SDS011;6187;50.778;6.142;2022-07-29T15:30:27;2.72;;;1.63;;
12248;SDS011;6187;50.778;6.142;2022-07-29T15:33:00;1.90;;;1.80;;
12248;SDS011;6187;50.778;6.142;2022-07-29T15:35:28;2.47;;;1.37;;
12248;SDS011;6187;50.778;6.142;2022-07-29T15:37:57;2.03;;;1.27;;
12248;SDS011;6187;50.778;6.142;2022-07-29T15:40:27;2.53;;;1.80;;
12248;SDS011;6187;50.778;6.142;2022-07-29T15:42:56;2.47;;;1.37;;